首页
METAR-TAF:

METAR-TAF

机场 :

巴利亚多利德, 西班牙

纬度: 41-43N, 经度: 004-51W, 海拔: 849米

当前天气观测

该预报发布于12分钟前的14:30 UTC
风速3节,风向西北
温度 37°C
湿度 18%
气压 1020 hPa
能见度10公里或以上
1500米以下无云,无积雨云

METAR: LEVD 221430Z 31003KT CAVOK 37/09 Q1020

时间: 16:42 (14:42 UTC)

预报

该预报发布于3小时和42分钟前的11:00 UTC
预报有效从22日的 12点(UTC)到 23日的 12点(UTC)
风速5节,风向多变
能见度10公里或以上
1500米以下无云,无积雨云
短暂存在
从 22日的 14点(UTC)到 22日的 22点(UTC)
少量云层高于4000英尺, 塔状积云.
几率 40% :
短暂存在
从 22日的 15点(UTC)到 22日的 20点(UTC)
风速15节,风向多变,有时为25节阵风
能見度: 4000
散云层高于4000英尺, 积雨云.
雷暴, 雨

TAF: LEVD 221100Z 2212/2312 VRB05KT CAVOK TX35/2215Z TN17/2305Z TEMPO 2214/2222 FEW040TCU PROB40 TEMPO 2215/2220 VRB15G25KT 4000 TSRA SCT040CB

超过4000个机场的气象观测和天气预报(METAR&TAF报告)。

可查询的气象台以黄色和红色小点在地图上表示。

将鼠标移到小点上方,可查看气象台名称。

然后点击查看天气观测和预报。

如需切换地图:点击带黑十字的绿色按钮放大地图;点击带横线的绿色按钮缩小地图;或者点击绿色箭头查看邻近地区的地图。


METAR-TAF: